Time;durP1;ratioP1;P1;durP2;ratioP2;P2;SDS_P1;SDS_P2;PMS_P1;PMS_P2;Temp;Humidity;BMP_temperature;BMP_pressure;BME280_temperature;BME280_humidity;BME280_pressure;Samples;Min_cycle;Max_cycle;Signal;HPM_P1;HPM_P2
2022/11/24 00:01:10;;;;;;;17.40;3.30;;;;;;;7.77;100.00;100247.88;5004312;28;20049;-66
2022/11/24 00:03:36;;;;;;;17.50;3.90;;;;;;;7.72;100.00;100250.09;5004266;28;20068;-66
2022/11/24 00:06:06;;;;;;;18.92;3.40;;;;;;;7.74;100.00;100248.16;5009723;28;20053;-66
2022/11/24 00:08:34;;;;;;;19.13;3.75;;;;;;;7.77;100.00;100254.91;5013166;28;20053;-66
2022/11/24 00:11:03;;;;;;;15.48;3.05;;;;;;;7.77;100.00;100254.91;5012967;28;20045;-66
2022/11/24 00:13:29;;;;;;;16.50;3.53;;;;;;;7.77;100.00;100265.34;5007107;28;20049;-66
2022/11/24 00:16:23;;;;;;;12.48;2.67;;;;;;;7.81;100.00;100253.66;5008239;28;20056;-66
2022/11/24 00:18:51;;;;;;;14.77;2.72;;;;;;;7.84;100.00;100258.56;5007159;28;20096;-66
2022/11/24 00:21:19;;;;;;;;;;;;;;;7.82;100.00;100261.34;5010168;28;20088;-67
2022/11/24 00:23:46;;;;;;;20.98;3.22;;;;;;;7.80;100.00;100263.28;5019069;28;19968;-66
2022/11/24 00:26:22;;;;;;;18.50;3.00;;;;;;;7.83;100.00;100256.94;5020412;28;20054;-66
2022/11/24 00:28:49;;;;;;;17.98;2.72;;;;;;;7.80;100.00;100252.84;5005940;28;20101;-67
2022/11/24 00:31:19;;;;;;;18.48;3.75;;;;;;;7.80;100.00;100252.00;5013350;28;20046;-66
2022/11/24 00:33:47;;;;;;;15.70;2.67;;;;;;;7.78;100.00;100248.69;5010193;28;20112;-66
2022/11/24 00:36:15;;;;;;;15.18;3.15;;;;;;;7.82;100.00;100253.50;5017212;28;20054;-66
2022/11/24 00:38:42;;;;;;;14.85;3.17;;;;;;;7.80;100.00;100263.28;5009975;28;20060;-66
2022/11/24 00:41:09;;;;;;;15.80;3.00;;;;;;;7.80;100.00;100265.88;5015125;28;20053;-66
2022/11/24 00:43:35;;;;;;;15.65;2.65;;;;;;;7.87;100.00;100268.75;5014418;28;20548;-66
2022/11/24 00:46:02;;;;;;;22.08;3.38;;;;;;;7.85;100.00;100263.66;5010787;28;20053;-66
2022/11/24 00:48:29;;;;;;;19.70;3.20;;;;;;;7.87;100.00;100263.53;5015689;28;20548;-66
2022/11/24 00:51:00;;;;;;;20.17;3.08;;;;;;;7.92;100.00;100272.59;5012203;28;20049;-66
2022/11/24 00:53:28;;;;;;;16.92;2.72;;;;;;;7.92;100.00;100266.53;5012358;28;20100;-66
2022/11/24 00:55:54;;;;;;;18.67;2.50;;;;;;;7.89;100.00;100267.63;5008553;28;20846;-66
2022/11/24 00:58:23;;;;;;;13.02;2.25;;;;;;;7.92;100.00;100264.75;5027925;28;20050;-66
2022/11/24 01:00:50;;;;;;;11.63;2.58;;;;;;;7.91;100.00;100267.50;5032562;28;20046;-66
2022/11/24 01:03:18;;;;;;;19.45;3.05;;;;;;;7.91;100.00;100270.09;5030510;28;20251;-66
2022/11/24 01:05:44;;;;;;;15.32;2.85;;;;;;;7.87;100.00;100269.56;5031517;28;20543;-66
2022/11/24 01:08:11;;;;;;;14.52;2.97;;;;;;;7.90;100.00;100271.91;5013698;28;20053;-66
2022/11/24 01:10:38;;;;;;;17.95;2.72;;;;;;;7.86;100.00;100272.31;5016196;28;20053;-66
2022/11/24 01:13:04;;;;;;;16.15;3.20;;;;;;;7.82;100.00;100278.78;5020345;28;20501;-66
2022/11/24 01:15:34;;;;;;;18.63;3.67;;;;;;;7.86;100.00;100280.97;5030870;28;20091;-66
2022/11/24 01:18:01;;;;;;;18.08;3.17;;;;;;;7.82;100.00;100284.84;5028283;28;20053;-66
2022/11/24 01:20:27;;;;;;;12.60;2.38;;;;;;;7.83;100.00;100276.03;5018625;28;20128;-66
2022/11/24 01:22:54;;;;;;;14.23;2.70;;;;;;;7.79;100.00;100277.28;5020070;28;20054;-66
2022/11/24 01:25:20;;;;;;;15.70;2.80;;;;;;;7.78;100.00;100286.09;5015775;28;20494;-66
2022/11/24 01:27:46;;;;;;;22.20;3.78;;;;;;;7.77;100.00;100284.44;5034535;28;20363;-66
2022/11/24 01:30:13;;;;;;;19.38;3.40;;;;;;;7.79;100.00;100286.91;5020619;28;20092;-66
2022/11/24 01:32:39;;;;;;;15.63;2.90;;;;;;;7.78;100.00;100293.09;5024674;28;20056;-66
2022/11/24 01:35:06;;;;;;;13.57;2.75;;;;;;;7.76;100.00;100295.84;5025399;28;20107;-66
2022/11/24 01:37:33;;;;;;;10.55;2.45;;;;;;;7.72;100.00;100295.31;5016235;28;20041;-66
2022/11/24 01:39:59;;;;;;;15.27;3.17;;;;;;;7.70;100.00;100297.25;5027806;28;20049;-66
2022/11/24 01:42:35;;;;;;;16.33;3.03;;;;;;;7.70;100.00;100305.06;5022844;28;20045;-66
2022/11/24 01:45:27;;;;;;;14.82;2.53;;;;;;;7.75;100.00;100303.81;5019169;28;20460;-66
2022/11/24 01:47:54;;;;;;;13.93;2.60;;;;;;;7.74;100.00;100308.19;5009541;28;20564;-66
2022/11/24 01:50:21;;;;;;;17.23;3.45;;;;;;;7.76;100.00;100303.66;5024960;28;20053;-66
2022/11/24 01:52:52;;;;;;;19.13;2.83;;;;;;;7.79;100.00;100302.56;5019264;28;20046;-66
2022/11/24 01:55:29;;;;;;;11.02;2.30;;;;;;;7.84;100.00;100306.41;5011499;28;20050;-67
2022/11/24 01:58:06;;;;;;;18.83;2.80;;;;;;;7.84;100.00;100308.19;5021753;28;20768;-66
2022/11/24 02:00:37;;;;;;;13.85;2.70;;;;;;;7.82;100.00;100307.50;5037019;28;20271;-66
2022/11/24 02:03:03;;;;;;;20.70;3.80;;;;;;;7.76;100.00;100311.50;5012553;28;20096;-66
2022/11/24 02:05:47;;;;;;;15.15;3.08;;;;;;;7.80;100.00;100315.50;5019309;28;20048;-66
2022/11/24 02:08:25;;;;;;;17.33;3.05;;;;;;;7.80;100.00;100315.50;5019805;28;20438;-66
2022/11/24 02:10:53;;;;;;;16.88;3.17;;;;;;;7.75;100.00;100317.69;5004412;28;20100;-66
2022/11/24 02:13:21;;;;;;;13.20;2.83;;;;;;;7.75;100.00;100322.91;5025059;28;20053;-66
2022/11/24 02:15:47;;;;;;;12.05;2.80;;;;;;;7.71;100.00;100314.53;5027889;28;20049;-66
2022/11/24 02:18:14;;;;;;;15.07;2.38;;;;;;;7.70;100.00;100323.34;5000967;28;20128;-66
2022/11/24 02:20:40;;;;;;;9.60;2.13;;;;;;;7.70;100.00;100331.19;5014522;28;20057;-66
2022/11/24 02:23:29;;;;;;;12.73;2.17;;;;;;;7.76;100.00;100326.34;5020724;28;20119;-66
2022/11/24 02:26:19;;;;;;;15.77;2.70;;;;;;;7.69;100.00;100339.97;5027836;28;20053;-66
2022/11/24 02:28:46;;;;;;;16.02;2.50;;;;;;;7.69;100.00;100329.53;4975344;28;20061;-66
2022/11/24 02:31:12;;;;;;;12.52;2.10;;;;;;;7.66;100.00;100335.03;5022496;28;20045;-66
2022/11/24 02:33:39;;;;;;;19.02;2.78;;;;;;;7.68;100.00;100340.94;5023204;28;20049;-66
2022/11/24 02:36:06;;;;;;;19.33;2.65;;;;;;;7.67;100.00;100341.06;5018855;28;20053;-66
2022/11/24 02:38:34;;;;;;;12.77;2.00;;;;;;;7.70;100.00;100339.00;5023495;28;20053;-66
2022/11/24 02:41:05;;;;;;;16.23;3.27;;;;;;;7.75;100.00;100343.00;5019436;28;20049;-66
2022/11/24 02:43:37;;;;;;;14.70;2.20;;;;;;;7.72;100.00;100344.91;5018359;28;20053;-66
2022/11/24 02:46:04;;;;;;;19.45;2.92;;;;;;;7.72;100.00;100344.06;5015980;28;20072;-66
2022/11/24 02:48:30;;;;;;;14.30;2.45;;;;;;;7.74;100.00;100342.16;5020751;28;20049;-66
2022/11/24 02:50:57;;;;;;;14.32;2.90;;;;;;;7.76;100.00;100344.63;5017364;28;20091;-66
2022/11/24 02:53:23;;;;;;;15.90;2.47;;;;;;;7.77;100.00;100348.91;5018526;28;20099;-66
2022/11/24 02:55:49;;;;;;;20.63;2.42;;;;;;;7.75;100.00;100349.03;5028015;28;20103;-66
2022/11/24 02:58:16;;;;;;;13.27;2.00;;;;;;;7.77;100.00;100346.28;5018452;28;20049;-66
2022/11/24 03:00:42;;;;;;;11.73;2.08;;;;;;;7.73;100.00;100348.34;5006633;28;20454;-67
2022/11/24 03:03:09;;;;;;;13.57;2.55;;;;;;;7.69;100.00;100354.81;5002275;28;20591;-66
2022/11/24 03:05:35;;;;;;;12.18;2.58;;;;;;;7.67;100.00;100348.91;5013345;28;20072;-67
2022/11/24 03:08:02;;;;;;;16.27;2.40;;;;;;;7.67;100.00;100341.06;5018496;28;20406;-66
2022/11/24 03:10:28;;;;;;;17.70;3.00;;;;;;;7.63;100.00;100348.34;5009294;28;20417;-67
2022/11/24 03:12:55;;;;;;;16.75;2.95;;;;;;;7.63;100.00;100347.53;5013673;28;20057;-66
2022/11/24 03:15:22;;;;;;;18.52;2.58;;;;;;;7.59;100.00;100349.59;5016086;28;20052;-66
2022/11/24 03:17:49;;;;;;;16.45;2.30;;;;;;;7.60;100.00;100355.63;5017043;28;20041;-66
2022/11/24 03:20:16;;;;;;;13.38;2.33;;;;;;;7.57;100.00;100356.75;5019393;28;20065;-66
2022/11/24 03:22:42;;;;;;;21.17;3.42;;;;;;;7.56;100.00;100356.88;5020933;28;20600;-67
2022/11/24 03:25:08;;;;;;;18.02;2.40;;;;;;;7.57;100.00;100353.31;5012379;28;20099;-68
2022/11/24 03:27:35;;;;;;;13.52;2.63;;;;;;;7.57;100.00;100350.72;4998493;28;20486;-66
2022/11/24 03:30:03;;;;;;;18.20;2.95;;;;;;;7.54;100.00;100351.78;5004053;28;20148;-66
2022/11/24 03:32:29;;;;;;;15.63;2.00;;;;;;;7.49;100.00;100367.88;5012320;28;20127;-66
2022/11/24 03:34:55;;;;;;;16.42;2.30;;;;;;;7.52;100.00;100364.97;5019561;28;20048;-66
2022/11/24 03:37:22;;;;;;;14.82;2.50;;;;;;;7.53;100.00;100360.59;5028085;28;20049;-66
2022/11/24 03:39:48;;;;;;;15.75;2.60;;;;;;;7.57;100.00;100367.19;5023065;28;20099;-66
2022/11/24 03:42:17;;;;;;;16.65;2.88;;;;;;;7.63;100.00;100377.06;5025298;28;20556;-66
2022/11/24 03:44:46;;;;;;;18.02;2.67;;;;;;;7.61;100.00;100376.38;5019247;28;20057;-66
2022/11/24 03:47:12;;;;;;;22.42;2.70;;;;;;;7.65;100.00;100380.38;5025527;28;20122;-66
2022/11/24 03:49:40;;;;;;;13.85;2.20;;;;;;;7.68;100.00;100380.09;5014095;28;20057;-66
2022/11/24 03:52:07;;;;;;;15.07;2.20;;;;;;;7.71;100.00;100376.38;5025649;28;20053;-66
2022/11/24 03:54:34;;;;;;;16.80;3.03;;;;;;;7.68;100.00;100382.72;5020508;28;20712;-66
2022/11/24 03:57:00;;;;;;;14.57;2.50;;;;;;;7.67;100.00;100388.06;5019131;28;20057;-66
2022/11/24 03:59:27;;;;;;;16.73;3.17;;;;;;;7.60;100.00;100381.72;5024653;28;20053;-66
2022/11/24 04:01:53;;;;;;;13.00;2.20;;;;;;;7.62;100.00;100391.06;5012861;28;20050;-66
2022/11/24 04:04:20;;;;;;;16.42;2.75;;;;;;;7.57;100.00;100393.28;5025151;28;20053;-66
2022/11/24 04:06:46;;;;;;;19.85;3.13;;;;;;;7.59;100.00;100414.03;5018931;28;20061;-66
2022/11/24 04:09:12;;;;;;;17.77;2.92;;;;;;;7.58;100.00;100412.38;5019476;28;20698;-66
2022/11/24 04:14:24;;;;;;;18.20;3.17;;;;;;;7.56;100.00;100411.69;5015690;28;20050;-66
2022/11/24 04:16:50;;;;;;;18.50;2.70;;;;;;;7.60;100.00;100410.44;5017778;28;20636;-66
2022/11/24 04:19:17;;;;;;;14.00;2.40;;;;;;;7.63;100.00;100408.41;5019146;28;20573;-66
2022/11/24 04:21:43;;;;;;;15.57;2.30;;;;;;;7.66;100.00;100405.53;5020354;28;20541;-66
2022/11/24 04:24:09;;;;;;;17.20;3.00;;;;;;;7.65;100.00;100400.44;5010957;28;20045;-66
2022/11/24 04:26:36;;;;;;;11.05;2.75;;;;;;;7.67;100.00;100401.94;5029376;28;20061;-66
2022/11/24 04:29:02;;;;;;;17.40;4.03;;;;;;;7.68;100.00;100408.81;5023469;28;20617;-66
2022/11/24 04:31:29;;;;;;;19.80;3.65;;;;;;;7.67;100.00;100415.00;5014739;28;20502;-66
2022/11/24 04:33:55;;;;;;;19.08;2.50;;;;;;;7.63;100.00;100420.63;5024674;28;20052;-66
2022/11/24 04:36:21;;;;;;;22.98;3.42;;;;;;;7.63;100.00;100428.47;5013289;28;20486;-66
2022/11/24 04:38:50;;;;;;;15.40;2.85;;;;;;;7.62;100.00;100421.56;5031289;28;20450;-66
2022/11/24 04:41:36;;;;;;;18.67;2.72;;;;;;;7.63;100.00;100425.84;5014406;28;20138;-66
2022/11/24 04:44:03;;;;;;;18.48;2.70;;;;;;;7.64;100.00;100424.88;5016626;28;20111;-66
2022/11/24 04:46:30;;;;;;;16.10;2.70;;;;;;;7.59;100.00;100427.09;5025326;28;20714;-66
2022/11/24 04:48:56;;;;;;;23.67;3.50;;;;;;;7.59;100.00;100432.31;5012423;28;20264;-66
2022/11/24 04:51:23;;;;;;;15.55;2.80;;;;;;;7.56;100.00;100430.78;5008946;28;21706;-67
2022/11/24 04:53:49;;;;;;;18.73;3.03;;;;;;;7.56;100.00;100436.00;5018029;28;20084;-66
2022/11/24 04:56:15;;;;;;;16.38;3.65;;;;;;;7.54;100.00;100432.69;5025816;28;20196;-66
2022/11/24 04:58:42;;;;;;;17.63;2.60;;;;;;;7.52;100.00;100432.00;5026873;28;20107;-67
2022/11/24 05:01:08;;;;;;;13.85;2.97;;;;;;;7.58;100.00;100435.88;5029100;28;20489;-66
2022/11/24 05:03:35;;;;;;;14.80;2.88;;;;;;;7.61;100.00;100433.00;5022607;28;20602;-66
2022/11/24 05:06:02;;;;;;;20.58;3.88;;;;;;;7.60;100.00;100441.78;5012536;28;20050;-66
2022/11/24 05:08:28;;;;;;;19.92;2.80;;;;;;;7.58;100.00;100441.91;5024500;28;20049;-66
2022/11/24 05:10:54;;;;;;;17.17;3.10;;;;;;;7.66;100.00;100442.06;5016948;28;20065;-66
2022/11/24 05:13:21;;;;;;;17.58;2.60;;;;;;;7.65;100.00;100444.81;5021580;28;20095;-66
2022/11/24 05:15:47;;;;;;;14.35;2.63;;;;;;;7.67;100.00;100446.31;5008764;28;20057;-66
2022/11/24 05:18:15;;;;;;;18.52;2.80;;;;;;;7.71;100.00;100446.88;5017729;28;20057;-66
2022/11/24 05:20:43;;;;;;;24.13;2.90;;;;;;;7.74;100.00;100462.25;5019465;28;20049;-66
2022/11/24 05:23:10;;;;;;;20.48;2.97;;;;;;;7.78;100.00;100457.56;5021508;28;20053;-66
2022/11/24 05:25:37;;;;;;;12.18;2.75;;;;;;;7.77;100.00;100471.59;5013024;28;20069;-66
2022/11/24 05:28:07;;;;;;;13.30;2.83;;;;;;;7.86;100.00;100476.00;5032150;28;20052;-66
2022/11/24 05:30:35;;;;;;;14.77;2.40;;;;;;;7.88;100.00;100482.75;5024796;28;20536;-66
2022/11/24 05:33:07;;;;;;;10.10;2.00;;;;;;;7.90;100.00;100495.69;5025346;28;20129;-66
2022/11/24 05:35:35;;;;;;;14.10;2.92;;;;;;;7.88;100.00;100477.53;5023187;28;20045;-66
2022/11/24 05:38:03;;;;;;;11.80;1.90;;;;;;;7.88;100.00;100487.97;5029782;28;20049;-66
2022/11/24 05:40:30;;;;;;;12.40;2.42;;;;;;;7.89;100.00;100494.00;5015983;28;20054;-66
2022/11/24 05:42:56;;;;;;;13.25;2.40;;;;;;;7.91;100.00;100492.91;5025320;28;20493;-66
2022/11/24 05:45:23;;;;;;;12.88;2.58;;;;;;;7.91;100.00;100492.09;5014979;28;20045;-66
2022/11/24 05:47:50;;;;;;;8.50;1.75;;;;;;;7.85;100.00;100501.28;5024829;28;20045;-66
2022/11/24 05:50:18;;;;;;;17.05;2.60;;;;;;;7.89;100.00;100509.69;5030213;28;20099;-66
2022/11/24 05:52:44;;;;;;;9.65;2.00;;;;;;;7.88;100.00;100516.69;5021888;28;20046;-66
2022/11/24 05:55:12;;;;;;;13.88;2.15;;;;;;;7.87;100.00;100516.81;5027255;28;20445;-66
2022/11/24 05:57:38;;;;;;;11.25;2.30;;;;;;;7.82;100.00;100524.22;5011920;28;20050;-65
2022/11/24 06:00:07;;;;;;;9.10;2.63;;;;;;;7.83;100.00;100536.34;5016534;28;20050;-66
2022/11/24 06:02:34;;;;;;;9.82;1.88;;;;;;;7.82;100.00;100532.91;5013713;28;20709;-65
2022/11/24 06:05:00;;;;;;;13.32;1.70;;;;;;;7.79;100.00;100542.78;5027604;28;20506;-66
2022/11/24 06:07:27;;;;;;;9.20;1.92;;;;;;;7.78;100.00;100551.56;5026810;28;20054;-66
2022/11/24 06:09:53;;;;;;;10.23;2.03;;;;;;;7.76;100.00;100559.53;5019806;28;20096;-66
2022/11/24 06:12:20;;;;;;;8.68;1.75;;;;;;;7.74;100.00;100551.00;5027284;28;20046;-66
2022/11/24 06:14:46;;;;;;;8.98;1.45;;;;;;;7.72;100.00;100558.16;5014296;28;20556;-66
2022/11/24 06:17:12;;;;;;;9.38;1.77;;;;;;;7.70;100.00;100560.94;5026659;28;20049;-66
2022/11/24 06:19:39;;;;;;;7.30;1.58;;;;;;;7.69;100.00;100564.47;5033234;28;20056;-66
2022/11/24 06:22:07;;;;;;;7.50;1.55;;;;;;;7.70;100.00;100570.53;5026755;28;20053;-66
2022/11/24 06:24:34;;;;;;;9.55;1.88;;;;;;;7.69;100.00;100579.31;5021539;28;20046;-66
2022/11/24 06:27:00;;;;;;;7.95;1.50;;;;;;;7.71;100.00;100585.25;5010743;28;20056;-66
2022/11/24 06:29:27;;;;;;;6.18;1.50;;;;;;;7.73;100.00;100580.72;5021044;28;20450;-65
2022/11/24 06:31:53;;;;;;;7.18;1.50;;;;;;;7.71;100.00;100588.66;5017637;28;20045;-66
2022/11/24 06:34:19;;;;;;;7.13;1.70;;;;;;;7.70;100.00;100586.19;5029153;28;20073;-66
2022/11/24 06:36:46;;;;;;;10.38;1.65;;;;;;;7.73;100.00;100594.59;5024567;28;20045;-66
2022/11/24 06:39:12;;;;;;;7.68;1.60;;;;;;;7.73;100.00;100604.22;5021016;28;20068;-65
2022/11/24 06:41:38;;;;;;;8.85;1.60;;;;;;;7.73;100.00;100609.44;5021860;28;20087;-66
2022/11/24 06:44:05;;;;;;;6.22;1.20;;;;;;;7.75;100.00;100611.91;5019379;28;20056;-66
2022/11/24 06:46:31;;;;;;;8.88;1.50;;;;;;;7.72;100.00;100615.59;5011390;28;20042;-65
2022/11/24 06:49:01;;;;;;;6.78;1.40;;;;;;;7.72;100.00;100623.44;5004976;28;20067;-66
2022/11/24 06:51:27;;;;;;;5.10;1.50;;;;;;;7.67;100.00;100626.44;5021809;28;20049;-66
2022/11/24 06:53:54;;;;;;;4.75;1.40;;;;;;;7.71;100.00;100627.84;5010061;28;20068;-66
2022/11/24 06:56:21;;;;;;;6.28;1.63;;;;;;;7.72;100.00;100629.50;5016853;28;20061;-66
2022/11/24 06:58:50;;;;;;;5.25;1.50;;;;;;;7.76;100.00;100643.09;5020699;28;20506;-66
2022/11/24 07:01:27;;;;;;;5.78;1.20;;;;;;;7.76;100.00;100648.31;5013958;28;20431;-66
2022/11/24 07:03:55;;;;;;;8.70;1.65;;;;;;;7.68;100.00;100651.63;5026520;28;20081;-66
2022/11/24 07:06:23;;;;;;;10.32;1.95;;;;;;;7.60;100.00;100654.03;5020018;28;20060;-66
2022/11/24 07:08:50;;;;;;;13.60;1.87;;;;;;;7.60;100.00;100661.03;5021777;28;20053;-65
2022/11/24 07:11:19;;;;;;;5.70;1.73;;;;;;;7.57;100.00;100662.13;5005566;28;20291;-66
2022/11/24 07:13:47;;;;;;;8.65;2.53;;;;;;;7.58;100.00;100670.78;5013832;28;20104;-66
2022/11/24 07:16:24;;;;;;;7.70;3.03;;;;;;;7.66;100.00;100674.41;5011924;28;20107;-66
2022/11/24 07:18:52;;;;;;;7.45;2.70;;;;;;;7.65;100.00;100690.19;5010118;28;20054;-66
2022/11/24 07:21:20;;;;;;;7.63;3.13;;;;;;;7.69;100.00;100687.19;5015302;28;20053;-66
2022/11/24 07:23:48;;;;;;;6.55;3.63;;;;;;;7.70;100.00;100709.75;5013423;28;20045;-66
2022/11/24 07:26:14;;;;;;;12.40;5.40;;;;;;;7.71;100.00;100708.78;5024338;28;20525;-66
2022/11/24 07:28:41;;;;;;;13.77;3.72;;;;;;;7.76;100.00;100703.16;5014187;28;20053;-66
2022/11/24 07:31:18;;;;;;;8.70;3.50;;;;;;;7.79;100.00;100713.34;5016815;28;20079;-66
2022/11/24 07:33:50;;;;;;;10.30;3.67;;;;;;;7.80;100.00;100719.38;5026335;28;20094;-66
2022/11/24 07:36:16;;;;;;;9.32;3.60;;;;;;;7.82;100.00;100714.84;5015298;28;20049;-66
2022/11/24 07:38:43;;;;;;;8.75;3.45;;;;;;;7.82;100.00;100718.31;5008174;28;20067;-66
2022/11/24 07:41:11;;;;;;;8.75;3.20;;;;;;;7.87;100.00;100730.97;5010424;28;20494;-66
2022/11/24 07:43:38;;;;;;;10.95;3.50;;;;;;;7.90;100.00;100735.94;5008132;28;20046;-66
2022/11/24 07:46:06;;;;;;;8.73;3.38;;;;;;;7.91;100.00;100741.00;5024965;28;20053;-66
2022/11/24 07:48:33;;;;;;;7.55;3.20;;;;;;;7.88;100.00;100748.31;5019433;28;20378;-66
2022/11/24 07:51:01;;;;;;;8.00;3.63;;;;;;;7.92;100.00;100742.69;5019131;28;20064;-66
2022/11/24 07:53:28;;;;;;;8.48;3.78;;;;;;;7.87;100.00;100751.88;5013651;28;20075;-66
2022/11/24 07:55:57;;;;;;;10.18;3.95;;;;;;;7.87;100.00;100751.88;5029652;28;20052;-66
2022/11/24 07:58:23;;;;;;;;;;;;;;;7.87;100.00;100754.47;5016059;28;20576;-66
2022/11/24 08:00:57;;;;;;;10.00;4.78;;;;;;;7.80;100.00;100761.16;5024505;28;19932;-66
2022/11/24 08:03:24;;;;;;;9.75;4.57;;;;;;;7.80;100.00;100764.63;5004883;28;20052;-66
2022/11/24 08:05:58;;;;;;;15.05;5.07;;;;;;;7.86;100.00;100765.88;5014932;28;20065;-66
2022/11/24 08:08:45;;;;;;;13.23;4.95;;;;;;;7.86;100.00;100769.31;5036460;28;20052;-66
2022/11/24 08:11:14;;;;;;;12.52;5.00;;;;;;;7.88;100.00;100771.81;5016095;28;20573;-66
2022/11/24 08:13:41;;;;;;;;;;;;;;;7.93;100.00;100777.47;5023605;28;20068;-66
2022/11/24 08:16:10;;;;;;;10.25;4.90;;;;;;;7.91;100.00;100784.59;5003766;28;19924;-66
2022/11/24 08:18:37;;;;;;;10.95;5.20;;;;;;;7.92;100.00;100787.09;5014396;28;20076;-66
2022/11/24 08:21:04;;;;;;;12.52;4.80;;;;;;;7.96;100.00;100790.28;4984368;28;20682;-66
2022/11/24 08:23:31;;;;;;;11.80;5.63;;;;;;;7.93;100.00;100786.13;5004299;28;20077;-66
2022/11/24 08:26:03;;;;;;;9.73;4.00;;;;;;;7.95;100.00;100795.63;5007772;28;20041;-66
2022/11/24 08:28:31;;;;;;;8.82;3.88;;;;;;;8.03;100.00;100799.22;5008953;28;20067;-66
2022/11/24 08:31:07;;;;;;;10.40;3.80;;;;;;;7.99;100.00;100803.06;5013076;28;20048;-66
2022/11/24 08:33:34;;;;;;;8.20;3.65;;;;;;;8.05;100.00;100804.31;4982205;28;20075;-65
2022/11/24 08:36:09;;;;;;;10.60;3.92;;;;;;;8.14;100.00;100808.78;5017477;28;20064;-66
2022/11/24 08:38:36;;;;;;;11.07;4.18;;;;;;;8.11;100.00;100819.47;5015582;28;20053;-66
2022/11/24 08:41:05;;;;;;;11.73;3.92;;;;;;;8.13;100.00;100814.94;5024652;28;20089;-65
2022/11/24 08:43:32;;;;;;;12.18;3.70;;;;;;;8.11;100.00;100828.16;5016958;28;20046;-66
2022/11/24 08:46:05;;;;;;;7.40;3.35;;;;;;;8.13;100.00;100820.16;5012042;28;20056;-66
2022/11/24 08:48:32;;;;;;;8.63;2.92;;;;;;;8.18;100.00;100827.63;5008881;28;20053;-65
2022/11/24 08:51:05;;;;;;;7.95;2.72;;;;;;;8.22;100.00;100829.03;4994570;28;20049;-66
2022/11/24 08:53:32;;;;;;;9.40;3.53;;;;;;;8.14;100.00;100841.91;5021699;28;20049;-66
2022/11/24 08:55:59;;;;;;;12.57;3.45;;;;;;;8.17;100.00;100839.03;5012006;28;20687;-66
2022/11/24 08:58:27;;;;;;;13.63;3.10;;;;;;;8.22;100.00;100840.28;5011755;28;20522;-66
2022/11/24 09:00:55;;;;;;;8.50;3.22;;;;;;;8.26;100.00;100835.66;5021260;28;20493;-66
2022/11/24 09:03:21;;;;;;;8.93;3.00;;;;;;;8.26;100.00;100844.31;5012240;28;20060;-65
2022/11/24 09:05:48;;;;;;;10.02;3.10;;;;;;;8.29;100.00;100849.28;5015899;28;20038;-66
2022/11/24 09:08:18;;;;;;;12.88;3.33;;;;;;;8.32;100.00;100850.78;5008013;28;20050;-66
2022/11/24 09:10:44;;;;;;;11.50;3.70;;;;;;;8.31;100.00;100859.59;5018189;28;20064;-66
2022/11/24 09:13:10;;;;;;;12.55;3.40;;;;;;;8.30;100.00;100847.47;5007367;28;20471;-66
2022/11/24 09:15:37;;;;;;;12.30;2.90;;;;;;;8.25;100.00;100867.94;5003883;28;20069;-66
2022/11/24 09:18:04;;;;;;;11.60;2.78;;;;;;;8.22;100.00;100866.44;5025488;28;20053;-66
2022/11/24 09:20:30;;;;;;;11.25;2.78;;;;;;;8.23;100.00;100869.88;5009812;28;20061;-66
2022/11/24 09:22:56;;;;;;;16.38;3.45;;;;;;;8.20;100.00;100868.34;5022593;28;20096;-66
2022/11/24 09:25:23;;;;;;;9.07;3.75;;;;;;;8.24;100.00;100871.53;5003392;28;20049;-66
2022/11/24 09:27:50;;;;;;;11.05;2.70;;;;;;;8.23;100.00;100867.25;5021679;28;20056;-66
2022/11/24 09:30:16;;;;;;;11.25;2.67;;;;;;;8.21;100.00;100879.63;5032110;28;20057;-66
2022/11/24 09:32:43;;;;;;;7.20;2.38;;;;;;;8.21;100.00;100877.84;5028962;28;20057;-66
2022/11/24 09:35:09;;;;;;;10.10;2.67;;;;;;;8.23;100.00;100885.53;5024765;28;20501;-66
2022/11/24 09:37:36;;;;;;;12.88;3.10;;;;;;;8.21;100.00;100892.69;5013868;28;20540;-66
2022/11/24 09:40:02;;;;;;;8.68;2.40;;;;;;;8.27;100.00;100897.38;5010232;28;20050;-67
2022/11/24 09:42:47;;;;;;;8.43;3.08;;;;;;;8.34;100.00;100901.16;4998929;28;20054;-67
2022/11/24 09:45:31;;;;;;;9.27;2.30;;;;;;;8.35;100.00;100904.59;5010727;28;20140;-67
2022/11/24 09:48:49;;;;;;;11.73;2.80;;;;;;;8.43;100.00;100912.66;5017995;28;20060;-67
2022/11/24 09:51:18;;;;;;;11.07;2.60;;;;;;;8.42;100.00;100905.75;5025907;28;20053;-67
2022/11/24 09:53:53;;;;;;;11.15;2.60;;;;;;;8.44;100.00;100914.31;5018176;28;20972;-67
2022/11/24 09:56:27;;;;;;;14.48;2.80;;;;;;;8.42;100.00;100903.97;5024000;28;20049;-67
2022/11/24 09:59:01;;;;;;;14.77;2.90;;;;;;;8.34;100.00;100916.00;5025185;28;20480;-67
2022/11/24 10:01:34;;;;;;;10.85;2.15;;;;;;;8.31;100.00;100919.69;5020495;28;20045;-67
2022/11/24 10:04:02;;;;;;;9.15;2.17;;;;;;;8.29;100.00;100917.22;5027021;28;20501;-67
2022/11/24 10:06:43;;;;;;;5.85;1.98;;;;;;;8.38;100.00;100917.41;5021253;28;20060;-67
2022/11/24 10:09:38;;;;;;;12.70;2.53;;;;;;;8.48;100.00;100923.53;5017826;28;20565;-67
2022/11/24 10:12:43;;;;;;;10.90;2.08;;;;;;;8.54;100.00;100933.47;5021408;28;20049;-67
2022/11/24 10:15:29;;;;;;;11.32;2.80;;;;;;;8.60;100.00;100943.41;5014118;28;20089;-67
2022/11/24 10:18:25;;;;;;;10.45;1.85;;;;;;;8.69;100.00;100942.63;5022334;28;20049;-67
2022/11/24 10:21:16;;;;;;;7.93;2.30;;;;;;;8.77;100.00;100943.78;5028020;28;20119;-67
2022/11/24 10:24:07;;;;;;;6.90;1.80;;;;;;;8.74;100.00;100944.84;5009599;28;20135;-67
2022/11/24 10:26:36;;;;;;;4.65;1.35;;;;;;;8.83;100.00;100946.66;5025940;28;20131;-66
2022/11/24 10:29:40;;;;;;;10.48;2.08;;;;;;;8.90;100.00;100949.59;5022010;28;20111;-67
2022/11/24 10:32:34;;;;;;;13.82;2.65;;;;;;;8.93;100.00;100946.72;5016975;28;20052;-68
2022/11/24 10:35:23;;;;;;;14.27;2.65;;;;;;;9.00;100.00;100958.31;4998983;28;20108;-67
2022/11/24 10:37:56;;;;;;;8.88;2.47;;;;;;;8.90;100.00;100966.13;4996760;28;20055;-66
2022/11/24 10:40:35;;;;;;;15.05;2.95;;;;;;;9.04;100.00;100953.66;5011948;28;20045;-67
2022/11/24 10:43:21;;;;;;;11.00;2.38;;;;;;;9.04;100.00;100961.50;5030830;28;20107;-67
2022/11/24 10:45:48;;;;;;;9.13;2.45;;;;;;;9.13;100.00;100963.28;5020113;28;20052;-66
2022/11/24 10:48:23;;;;;;;9.70;2.22;;;;;;;9.16;100.00;100970.88;5027408;28;20132;-67
2022/11/24 10:50:55;;;;;;;11.10;2.42;;;;;;;9.24;100.00;100960.56;5014802;28;20936;-66
2022/11/24 10:53:34;;;;;;;11.48;2.70;;;;;;;9.28;100.00;100972.44;5010760;28;20050;-67
2022/11/24 10:56:04;;;;;;;12.90;2.22;;;;;;;9.32;100.00;100964.31;5024103;28;20061;-67
2022/11/24 10:58:33;;;;;;;18.38;2.70;;;;;;;9.30;100.00;100970.50;5014246;28;20068;-67
2022/11/24 11:01:12;;;;;;;9.35;2.05;;;;;;;9.36;100.00;100981.41;5034277;28;20076;-67
2022/11/24 11:03:48;;;;;;;13.85;2.97;;;;;;;9.35;100.00;100974.50;5006860;28;20113;-66
2022/11/24 11:06:22;;;;;;;11.68;2.00;;;;;;;9.43;100.00;100978.13;5015028;28;20061;-66
2022/11/24 11:08:49;;;;;;;12.52;2.33;;;;;;;9.47;100.00;100983.91;5012638;28;20046;-67
2022/11/24 11:11:26;;;;;;;10.30;2.35;;;;;;;9.49;100.00;100982.81;5018629;28;20045;-67
2022/11/24 11:13:59;;;;;;;16.27;2.50;;;;;;;9.58;100.00;100980.34;5016860;28;20057;-67
2022/11/24 11:16:52;;;;;;;9.75;1.70;;;;;;;9.69;100.00;100983.66;5031826;28;20501;-66
2022/11/24 11:19:39;;;;;;;19.45;2.55;;;;;;;9.68;100.00;100987.25;5022209;28;20072;-66
2022/11/24 11:22:22;;;;;;;14.27;3.33;;;;;;;9.77;100.00;100998.69;5018806;28;20140;-67
2022/11/24 11:25:21;;;;;;;14.55;2.00;;;;;;;9.83;100.00;100997.31;5024772;28;20045;-67
2022/11/24 11:27:47;;;;;;;;;;;;;;;9.84;100.00;101007.69;4996466;28;20462;-67
2022/11/24 11:30:19;;;;;;;13.80;2.55;;;;;;;9.87;100.00;100990.84;5032197;28;20221;-67
2022/11/24 11:33:24;;;;;;;12.45;2.83;;;;;;;9.97;100.00;100996.09;5011577;28;20068;-67
2022/11/24 11:36:11;;;;;;;12.70;2.53;;;;;;;9.97;100.00;101009.19;5022784;28;20084;-67